Rota Mariana Islands, Northern Mariana Islands
Current Conditions -  °F | °C
As of 9:50 AM on Friday 28 Nov 2014 (Local Time) from PGRO Reporting Station
Few Clouds Few Clouds  
Wind Chill: 84°   Ceiling: Unl
Heat Index: 92°   Visibility: 7mi
Dew Point: 75°   Wind: 15mph
Humidity: 74%   Direction: 60°ENE
Pressure: 29.91"   Gusts: 23mph
Location:  14.17°N, 145.25°E
Report Text: PGRO 272350Z 06013G20KT 7SM FEW028 29/24 A2991
Loading
Personal Weather Stations






























Interactive Weather Map New forecast layout! Learn more

10-Day Weather Forecast

Advertisements
Track Severe Weather on mobile